Time;durP1;ratioP1;P1;durP2;ratioP2;P2;SDS_P1;SDS_P2;PMS_P1;PMS_P2;Temp;Humidity;BMP_temperature;BMP_pressure;BME280_temperature;BME280_humidity;BME280_pressure;Samples;Min_cycle;Max_cycle;Signal;HPM_P1;HPM_P2
2023/09/11 12:51:12;;;;;;;;;;;26.40;61.10;;;;;;5017859;28;20542;-69
2023/09/11 12:53:46;;;;;;;;;;;26.40;62.00;;;;;;5016239;28;20362;-68
2023/09/11 12:56:20;;;;;;;;;;;26.40;61.30;;;;;;5018771;28;20296;-70
2023/09/11 12:58:56;;;;;;;;;;;26.40;62.40;;;;;;5022217;28;19933;-67
2023/09/11 13:01:31;;;;;;;;;;;26.40;62.20;;;;;;5022216;28;19936;-67
2023/09/11 13:04:06;;;;;;;;;;;26.30;62.10;;;;;;5019667;28;19940;-68
2023/09/11 13:06:40;;;;;;;;;;;26.30;61.70;;;;;;5018693;28;20270;-69
2023/09/11 13:09:14;;;;;;;;;;;26.20;62.30;;;;;;5020702;28;19933;-68
2023/09/11 13:11:47;;;;;;;;;;;26.20;61.70;;;;;;5020261;28;19929;-67
2023/09/11 13:14:21;;;;;;;;;;;26.20;62.40;;;;;;5021343;28;19979;-69
2023/09/11 13:16:54;;;;;;;;;;;26.10;62.30;;;;;;5019083;28;19936;-68
2023/09/11 13:19:27;;;;;;;;;;;26.10;61.90;;;;;;5015732;28;19926;-70
2023/09/11 13:22:01;;;;;;;;;;;26.10;61.30;;;;;;5021441;28;19937;-69
2023/09/11 13:24:34;;;;;;;;;;;26.10;61.80;;;;;;5017973;28;19929;-70
2023/09/11 13:27:07;;;;;;;;;;;26.10;62.50;;;;;;5019583;28;19933;-69
2023/09/11 13:29:40;;;;;;;;;;;26.10;61.50;;;;;;5018632;28;19937;-69
2023/09/11 13:32:13;;;;;;;;;;;26.10;62.10;;;;;;5017677;28;19930;-70
2023/09/11 13:34:39;;;;;;;;;;;26.00;62.10;;;;;;5021203;28;19958;-70
2023/09/11 13:37:14;;;;;;;;;;;26.10;62.20;;;;;;5019567;28;19929;-70
2023/09/11 13:39:48;;;;;;;;;;;26.00;61.70;;;;;;5021494;28;19944;-70
2023/09/11 13:42:24;;;;;;;;;;;26.00;62.00;;;;;;5017915;28;20486;-70
2023/09/11 13:44:57;;;;;;;;;;;26.00;62.60;;;;;;5020761;28;19929;-69
2023/09/11 13:47:30;;;;;;;;;;;26.00;62.20;;;;;;5019232;28;19929;-71
2023/09/11 13:50:03;;;;;;;;;;;26.00;62.90;;;;;;5021924;28;19929;-70
2023/09/11 13:52:37;;;;;;;;;;;26.00;62.20;;;;;;5017149;28;19937;-70
2023/09/11 13:55:11;;;;;;;;;;;25.90;62.30;;;;;;5022165;28;19979;-70
2023/09/11 13:57:44;;;;;;;;;;;25.90;61.60;;;;;;5020846;28;19940;-69
2023/09/11 14:00:17;;;;;;;;;;;25.90;62.00;;;;;;5017136;28;19925;-70
2023/09/11 14:02:51;;;;;;;;;;;25.90;62.20;;;;;;5020747;28;20016;-71
2023/09/11 14:05:17;;;;;;;;;;;25.80;62.00;;;;;;5019151;28;20399;-71
2023/09/11 14:07:52;;;;;;;;;;;25.80;61.90;;;;;;5021482;28;19936;-70
2023/09/11 14:10:26;;;;;;;;;;;25.80;62.40;;;;;;5019842;28;19972;-68
2023/09/11 14:12:59;;;;;;;;;;;25.80;62.30;;;;;;5017226;28;21556;-71
2023/09/11 14:15:32;;;;;;;;;;;25.80;63.10;;;;;;5017982;28;19931;-70
2023/09/11 14:18:05;;;;;;;;;;;25.80;62.20;;;;;;5009774;28;19983;-70
2023/09/11 14:20:38;;;;;;;;;;;25.70;62.20;;;;;;5012575;28;19948;-70
2023/09/11 14:23:12;;;;;;;;;;;25.70;62.30;;;;;;5017422;28;19940;-70
2023/09/11 14:25:46;;;;;;;;;;;25.70;62.70;;;;;;5018041;28;20015;-71
2023/09/11 14:28:19;;;;;;;;;;;25.70;62.30;;;;;;5016231;28;19932;-70
2023/09/11 14:30:52;;;;;;;;;;;25.70;62.60;;;;;;5018763;28;20434;-70
2023/09/11 14:33:25;;;;;;;;;;;25.70;63.20;;;;;;5017429;28;19930;-70
2023/09/11 14:35:58;;;;;;;;;;;25.70;62.40;;;;;;5018120;28;21109;-70
2023/09/11 14:38:32;;;;;;;;;;;25.70;62.80;;;;;;5019450;28;19933;-70
2023/09/11 14:41:06;;;;;;;;;;;25.70;62.60;;;;;;5016889;28;19976;-70
2023/09/11 14:43:39;;;;;;;;;;;25.60;62.60;;;;;;5013925;28;19935;-70
2023/09/11 14:46:12;;;;;;;;;;;25.60;62.90;;;;;;5020320;28;20386;-70
2023/09/11 14:48:46;;;;;;;;;;;25.60;63.10;;;;;;5004205;28;20606;-69
2023/09/11 14:51:20;;;;;;;;;;;25.60;62.90;;;;;;5019590;28;19936;-67
2023/09/11 14:53:48;;;;;;;;;;;25.60;63.10;;;;;;5021001;28;19955;-68
2023/09/11 14:56:22;;;;;;;;;;;25.70;63.80;;;;;;5018828;28;19933;-67
2023/09/11 14:58:55;;;;;;;;;;;25.60;63.00;;;;;;5019523;28;19953;-67
2023/09/11 15:01:28;;;;;;;;;;;25.60;62.70;;;;;;5015762;28;19979;-68
2023/09/11 15:04:02;;;;;;;;;;;25.60;62.70;;;;;;5017655;28;19936;-68
2023/09/11 15:06:28;;;;;;;;;;;25.60;63.00;;;;;;5019827;28;19925;-67
2023/09/11 15:09:03;;;;;;;;;;;25.60;62.60;;;;;;5020111;28;20399;-67
2023/09/11 15:11:37;;;;;;;;;;;25.60;63.00;;;;;;5016838;28;19936;-68
2023/09/11 15:14:10;;;;;;;;;;;25.50;63.00;;;;;;5016711;28;19995;-68
2023/09/11 15:16:43;;;;;;;;;;;25.50;62.80;;;;;;5019509;28;20467;-67
2023/09/11 15:19:16;;;;;;;;;;;25.50;63.10;;;;;;5019792;28;20411;-68
2023/09/11 15:21:49;;;;;;;;;;;25.50;63.40;;;;;;5016678;28;20074;-67
2023/09/11 15:24:23;;;;;;;;;;;25.50;63.30;;;;;;5016093;28;19935;-68
2023/09/11 15:26:57;;;;;;;;;;;25.50;63.10;;;;;;5013704;28;19929;-68
2023/09/11 15:29:30;;;;;;;;;;;25.50;63.10;;;;;;5013500;28;20390;-68
2023/09/11 15:32:03;;;;;;;;;;;25.40;63.30;;;;;;5015886;28;19940;-68
2023/09/11 15:34:38;;;;;;;;;;;25.50;63.60;;;;;;5015591;28;19983;-67
2023/09/11 15:37:08;;;;;;;;;;;25.50;63.20;;;;;;5023148;28;19991;-69
2023/09/11 15:39:42;;;;;;;;;;;25.40;63.40;;;;;;5021699;28;20258;-68
2023/09/11 15:42:16;;;;;;;;;;;25.40;63.60;;;;;;5024047;28;19956;-68
2023/09/11 15:44:50;;;;;;;;;;;25.40;63.40;;;;;;5021366;28;19977;-67
2023/09/11 15:47:23;;;;;;;;;;;25.30;63.30;;;;;;5019274;28;20020;-67
2023/09/11 15:49:56;;;;;;;;;;;25.40;63.50;;;;;;5025016;28;19941;-67
2023/09/11 15:52:29;;;;;;;;;;;25.40;63.50;;;;;;5022306;28;19929;-68
2023/09/11 15:55:03;;;;;;;;;;;25.40;63.60;;;;;;5020515;28;20471;-67
2023/09/11 15:57:37;;;;;;;;;;;25.40;63.70;;;;;;5020962;28;20028;-67
2023/09/11 16:00:10;;;;;;;;;;;25.30;63.80;;;;;;5019366;28;20460;-67
2023/09/11 16:02:44;;;;;;;;;;;25.30;64.00;;;;;;5022613;28;19925;-70
2023/09/11 16:05:17;;;;;;;;;;;25.30;64.10;;;;;;5018543;28;20312;-72
2023/09/11 16:07:50;;;;;;;;;;;25.30;64.10;;;;;;5017428;28;20292;-70
2023/09/11 16:10:24;;;;;;;;;;;25.30;64.10;;;;;;5019968;28;20708;-70
2023/09/11 16:13:01;;;;;;;;;;;25.30;64.30;;;;;;5021483;28;20005;-71
2023/09/11 16:15:35;;;;;;;;;;;25.30;64.20;;;;;;5019564;28;19929;-71
2023/09/11 16:18:08;;;;;;;;;;;25.30;64.40;;;;;;5019985;28;19925;-70
2023/09/11 16:20:41;;;;;;;;;;;25.30;64.20;;;;;;5021087;28;19933;-70
2023/09/11 16:23:14;;;;;;;;;;;25.30;64.50;;;;;;5018735;28;19940;-72
2023/09/11 16:25:48;;;;;;;;;;;25.20;64.30;;;;;;5017761;28;20395;-69
2023/09/11 16:28:25;;;;;;;;;;;25.20;64.40;;;;;;5022301;28;19969;-72
2023/09/11 16:33:47;;;;;;;;;;;25.20;64.90;;;;;;5013146;28;19933;-69
2023/09/11 16:36:20;;;;;;;;;;;25.20;65.20;;;;;;5021001;28;19939;-70
2023/09/11 16:38:54;;;;;;;;;;;25.20;65.50;;;;;;5022708;28;19934;-69
2023/09/11 16:41:28;;;;;;;;;;;25.10;65.60;;;;;;5022069;28;19943;-70
2023/09/11 16:44:02;;;;;;;;;;;25.10;66.00;;;;;;5016656;28;19932;-71
2023/09/11 16:46:35;;;;;;;;;;;25.10;66.20;;;;;;5020989;28;19933;-69
2023/09/11 16:49:08;;;;;;;;;;;25.10;66.60;;;;;;5021253;28;19940;-70
2023/09/11 16:51:41;;;;;;;;;;;25.10;67.30;;;;;;5018437;28;19934;-70
2023/09/11 16:54:16;;;;;;;;;;;25.10;66.90;;;;;;5021948;28;20376;-70
2023/09/11 16:56:51;;;;;;;;;;;25.00;67.70;;;;;;5021840;28;20404;-70
2023/09/11 16:59:25;;;;;;;;;;;25.10;69.50;;;;;;5019833;28;19984;-71
2023/09/11 17:01:59;;;;;;;;;;;25.00;70.00;;;;;;5016209;28;20434;-70
2023/09/11 17:04:33;;;;;;;;;;;25.00;70.50;;;;;;5020674;28;20016;-70
2023/09/11 17:07:06;;;;;;;;;;;24.90;72.00;;;;;;5022165;28;19929;-70
2023/09/11 17:09:39;;;;;;;;;;;24.80;72.80;;;;;;5021948;28;19932;-71
2023/09/11 17:12:14;;;;;;;;;;;24.80;73.40;;;;;;5021760;28;19926;-71
2023/09/11 17:14:47;;;;;;;;;;;24.70;72.90;;;;;;5020748;28;19975;-70
2023/09/11 17:17:20;;;;;;;;;;;24.70;74.20;;;;;;5019623;28;20333;-69
2023/09/11 17:19:55;;;;;;;;;;;24.60;73.80;;;;;;5022085;28;20399;-70
2023/09/11 17:22:29;;;;;;;;;;;24.60;74.50;;;;;;5017803;28;20011;-67
2023/09/11 17:25:02;;;;;;;;;;;24.60;74.30;;;;;;5019755;28;19940;-67
2023/09/11 17:27:36;;;;;;;;;;;24.50;74.50;;;;;;5016127;28;19925;-67
2023/09/11 17:30:11;;;;;;;;;;;24.50;74.60;;;;;;5017832;28;19933;-67
2023/09/11 17:32:39;;;;;;;;;;;24.40;75.20;;;;;;5020117;28;19937;-68
2023/09/11 17:35:12;;;;;;;;;;;24.30;75.20;;;;;;5021918;28;19933;-67
2023/09/11 17:37:45;;;;;;;;;;;24.30;75.20;;;;;;5020639;28;20360;-67
2023/09/11 17:40:18;;;;;;;;;;;24.20;75.00;;;;;;5019488;28;19936;-68
2023/09/11 17:42:52;;;;;;;;;;;24.10;75.00;;;;;;5021779;28;19925;-68
2023/09/11 17:45:26;;;;;;;;;;;24.10;75.00;;;;;;5021476;28;19932;-68
2023/09/11 17:47:59;;;;;;;;;;;24.10;74.90;;;;;;5022782;28;20411;-68
2023/09/11 17:50:32;;;;;;;;;;;24.00;74.70;;;;;;5005119;28;19953;-68
2023/09/11 17:53:05;;;;;;;;;;;23.90;75.00;;;;;;5021190;28;20001;-69
2023/09/11 17:55:38;;;;;;;;;;;23.90;75.10;;;;;;5022926;28;20012;-67
2023/09/11 17:58:12;;;;;;;;;;;23.90;74.90;;;;;;5022029;28;19929;-68
2023/09/11 18:00:46;;;;;;;;;;;23.80;75.10;;;;;;5019553;28;19925;-69
2023/09/11 18:03:19;;;;;;;;;;;23.70;75.30;;;;;;5020329;28;19960;-68
2023/09/11 18:05:49;;;;;;;;;;;23.70;75.30;;;;;;5002398;28;19929;-68
2023/09/11 18:08:22;;;;;;;;;;;23.70;75.40;;;;;;5022794;28;20355;-68
2023/09/11 18:10:55;;;;;;;;;;;23.60;75.40;;;;;;5023178;28;19929;-68
2023/09/11 18:13:23;;;;;;;;;;;23.60;75.70;;;;;;5020032;28;20400;-69
2023/09/11 18:15:56;;;;;;;;;;;23.50;76.00;;;;;;5021717;28;19936;-68
2023/09/11 18:18:29;;;;;;;;;;;23.50;76.10;;;;;;5019880;28;20383;-69
2023/09/11 18:21:02;;;;;;;;;;;23.40;76.40;;;;;;5023049;28;20292;-68
2023/09/11 18:23:35;;;;;;;;;;;23.40;76.50;;;;;;5022691;28;19929;-68
2023/09/11 18:26:08;;;;;;;;;;;23.30;76.70;;;;;;5022040;28;19987;-68
2023/09/11 18:28:42;;;;;;;;;;;23.20;76.70;;;;;;5020513;28;19929;-68
2023/09/11 18:31:16;;;;;;;;;;;23.20;77.00;;;;;;5021041;28;19925;-68
2023/09/11 18:33:43;;;;;;;;;;;23.10;77.00;;;;;;5021271;28;19932;-68
2023/09/11 18:36:16;;;;;;;;;;;23.10;77.20;;;;;;5019426;28;20415;-68
2023/09/11 18:38:49;;;;;;;;;;;23.10;77.30;;;;;;5021251;28;20228;-68
2023/09/11 18:41:22;;;;;;;;;;;23.00;77.30;;;;;;5002788;28;19987;-68
2023/09/11 18:44:02;;;;;;;;;;;23.00;77.50;;;;;;5021101;28;19937;-67
2023/09/11 18:46:37;;;;;;;;;;;22.90;77.80;;;;;;5017172;28;19972;-68
2023/09/11 18:49:10;;;;;;;;;;;22.90;78.00;;;;;;5021991;28;19948;-67
2023/09/11 18:51:43;;;;;;;;;;;22.80;78.00;;;;;;5016288;28;19932;-69
2023/09/11 18:54:18;;;;;;;;;;;22.80;78.10;;;;;;5014277;28;20868;-68
2023/09/11 18:56:51;;;;;;;;;;;22.70;78.20;;;;;;5019766;28;19936;-69
2023/09/11 18:59:25;;;;;;;;;;;22.70;78.20;;;;;;5016227;28;19925;-69
2023/09/11 19:02:02;;;;;;;;;;;22.60;78.20;;;;;;5022180;28;19984;-68
2023/09/11 19:04:35;;;;;;;;;;;22.60;78.30;;;;;;5019561;28;19929;-69
2023/09/11 19:07:08;;;;;;;;;;;22.60;78.20;;;;;;5022151;28;19933;-69
2023/09/11 19:09:41;;;;;;;;;;;22.50;78.30;;;;;;5022662;28;20456;-69
2023/09/11 19:12:14;;;;;;;;;;;22.50;78.40;;;;;;5026166;28;20332;-68
2023/09/11 19:14:48;;;;;;;;;;;22.50;78.50;;;;;;5024723;28;20016;-69
2023/09/11 19:17:22;;;;;;;;;;;22.40;78.50;;;;;;5020774;28;20021;-69
2023/09/11 19:19:55;;;;;;;;;;;22.40;78.40;;;;;;5024377;28;20392;-68
2023/09/11 19:22:28;;;;;;;;;;;22.40;78.50;;;;;;5023918;28;20031;-69
2023/09/11 19:25:02;;;;;;;;;;;22.30;78.50;;;;;;5024528;28;19930;-69
2023/09/11 19:27:36;;;;;;;;;;;22.30;78.70;;;;;;5024682;28;20028;-67
2023/09/11 19:30:11;;;;;;;;;;;22.30;78.70;;;;;;5024396;28;20342;-68
2023/09/11 19:32:44;;;;;;;;;;;22.20;78.80;;;;;;5024467;28;19929;-68
2023/09/11 19:35:17;;;;;;;;;;;22.20;78.90;;;;;;5022982;28;20015;-68
2023/09/11 19:37:44;;;;;;;;;;;22.20;79.00;;;;;;5022894;28;19925;-69
2023/09/11 19:40:17;;;;;;;;;;;22.20;79.10;;;;;;5024785;28;19930;-69
2023/09/11 19:42:50;;;;;;;;;;;22.10;79.10;;;;;;5024386;28;19929;-68
2023/09/11 19:45:24;;;;;;;;;;;22.10;79.30;;;;;;5022238;28;19937;-68
2023/09/11 19:47:58;;;;;;;;;;;22.10;79.20;;;;;;5023211;28;19925;-68
2023/09/11 19:50:25;;;;;;;;;;;22.10;79.20;;;;;;5022076;28;20357;-69
2023/09/11 19:52:58;;;;;;;;;;;22.00;79.20;;;;;;5024523;28;19925;-69
2023/09/11 19:55:25;;;;;;;;;;;21.90;79.10;;;;;;5024058;28;19932;-69
2023/09/11 19:57:58;;;;;;;;;;;21.90;79.10;;;;;;5021982;28;19925;-68
2023/09/11 20:00:32;;;;;;;;;;;21.90;79.00;;;;;;5024751;28;20103;-68
2023/09/11 20:03:06;;;;;;;;;;;21.90;78.90;;;;;;5023516;28;19976;-68
2023/09/11 20:05:39;;;;;;;;;;;21.90;78.90;;;;;;5020794;28;20012;-69
2023/09/11 20:08:12;;;;;;;;;;;21.80;79.00;;;;;;5021161;28;19961;-68
2023/09/11 20:10:39;;;;;;;;;;;21.80;79.10;;;;;;5019355;28;20291;-68
2023/09/11 20:13:12;;;;;;;;;;;21.70;79.10;;;;;;5022065;28;20407;-68
2023/09/11 20:15:46;;;;;;;;;;;21.70;79.00;;;;;;5023791;28;19934;-68
2023/09/11 20:18:20;;;;;;;;;;;21.70;78.80;;;;;;5023404;28;19971;-69
2023/09/11 20:21:08;;;;;;;;;;;21.70;78.60;;;;;;5022025;28;20287;-68
2023/09/11 20:23:47;;;;;;;;;;;21.70;78.90;;;;;;5022259;28;19932;-67
2023/09/11 20:26:21;;;;;;;;;;;21.60;79.10;;;;;;5024677;28;19933;-69
2023/09/11 20:28:54;;;;;;;;;;;21.50;79.40;;;;;;5023977;28;20285;-67
2023/09/11 20:31:28;;;;;;;;;;;21.50;79.70;;;;;;5019070;28;19929;-68
2023/09/11 20:34:02;;;;;;;;;;;21.40;79.70;;;;;;5023932;28;20308;-68
2023/09/11 20:36:35;;;;;;;;;;;21.40;79.80;;;;;;5022299;28;20386;-68
2023/09/11 20:39:08;;;;;;;;;;;21.40;79.90;;;;;;5023301;28;20430;-68
2023/09/11 20:41:41;;;;;;;;;;;21.30;79.90;;;;;;5021377;28;19929;-69
2023/09/11 20:44:14;;;;;;;;;;;21.30;80.00;;;;;;5024870;28;19948;-67
2023/09/11 20:46:48;;;;;;;;;;;21.30;80.00;;;;;;5023978;28;19925;-69
2023/09/11 20:49:22;;;;;;;;;;;21.30;80.10;;;;;;5023099;28;19929;-69
2023/09/11 20:51:49;;;;;;;;;;;21.20;80.20;;;;;;5021355;28;19929;-69
2023/09/11 20:54:22;;;;;;;;;;;21.20;80.30;;;;;;5023737;28;19940;-68
2023/09/11 20:56:55;;;;;;;;;;;21.20;80.30;;;;;;5023360;28;19925;-68
2023/09/11 20:59:28;;;;;;;;;;;21.20;80.30;;;;;;5022570;28;19961;-67
2023/09/11 21:02:02;;;;;;;;;;;21.20;80.50;;;;;;5023377;28;19925;-68
2023/09/11 21:04:36;;;;;;;;;;;21.10;80.60;;;;;;5021564;28;19975;-68
2023/09/11 21:07:09;;;;;;;;;;;21.10;80.70;;;;;;5022545;28;20413;-68
2023/09/11 21:09:44;;;;;;;;;;;21.10;80.80;;;;;;5021359;28;19995;-68
2023/09/11 21:12:11;;;;;;;;;;;21.10;80.90;;;;;;5023310;28;19935;-68
2023/09/11 21:14:44;;;;;;;;;;;21.10;80.70;;;;;;5021870;28;19979;-68
2023/09/11 21:17:12;;;;;;;;;;;21.10;80.60;;;;;;5022774;28;19976;-68
2023/09/11 21:19:45;;;;;;;;;;;21.10;80.80;;;;;;5020716;28;19932;-68
2023/09/11 21:22:18;;;;;;;;;;;21.10;80.90;;;;;;5022503;28;20384;-68
2023/09/11 21:24:52;;;;;;;;;;;20.90;80.90;;;;;;5010300;28;20332;-68
2023/09/11 21:27:25;;;;;;;;;;;20.90;81.10;;;;;;5021644;28;21101;-68
2023/09/11 21:29:58;;;;;;;;;;;20.90;81.30;;;;;;5023640;28;20292;-67
2023/09/11 21:32:32;;;;;;;;;;;20.80;81.40;;;;;;5021923;28;19929;-68
2023/09/11 21:35:07;;;;;;;;;;;20.80;81.40;;;;;;5019632;28;19964;-68
2023/09/11 21:37:40;;;;;;;;;;;20.80;81.40;;;;;;5017980;28;20343;-68
2023/09/11 21:40:13;;;;;;;;;;;20.80;81.50;;;;;;5021571;28;20376;-67
2023/09/11 21:42:46;;;;;;;;;;;20.80;81.60;;;;;;5020163;28;20439;-68
2023/09/11 21:45:19;;;;;;;;;;;20.80;81.60;;;;;;5021864;28;19933;-69
2023/09/11 21:47:55;;;;;;;;;;;20.70;81.60;;;;;;5022499;28;19925;-67
2023/09/11 21:50:28;;;;;;;;;;;20.70;81.70;;;;;;5020681;28;19929;-67
2023/09/11 21:53:01;;;;;;;;;;;20.70;81.60;;;;;;5019280;28;20415;-68
2023/09/11 21:55:34;;;;;;;;;;;20.70;81.70;;;;;;5021589;28;20284;-68
2023/09/11 21:58:07;;;;;;;;;;;20.60;81.70;;;;;;5022900;28;19960;-67
2023/09/11 22:00:40;;;;;;;;;;;20.60;81.90;;;;;;5018527;28;19933;-66
2023/09/11 22:03:15;;;;;;;;;;;20.60;81.80;;;;;;5024997;28;20289;-77
2023/09/11 22:05:48;;;;;;;;;;;20.60;81.90;;;;;;5021876;28;19971;-77
2023/09/11 22:08:21;;;;;;;;;;;20.60;82.00;;;;;;5022095;28;19929;-76
2023/09/11 22:10:54;;;;;;;;;;;20.50;82.00;;;;;;5022451;28;19925;-77
2023/09/11 22:13:27;;;;;;;;;;;20.50;82.10;;;;;;5022650;28;19925;-76
2023/09/11 22:16:00;;;;;;;;;;;20.50;82.10;;;;;;5022277;28;19925;-76
2023/09/11 22:18:34;;;;;;;;;;;20.50;82.10;;;;;;5017442;28;19932;-76
2023/09/11 22:21:08;;;;;;;;;;;20.50;82.10;;;;;;5023563;28;19926;-75
2023/09/11 22:23:41;;;;;;;;;;;20.40;82.10;;;;;;5021850;28;19926;-76
2023/09/11 22:26:14;;;;;;;;;;;20.40;82.20;;;;;;5021152;28;19935;-77
2023/09/11 22:28:47;;;;;;;;;;;20.30;82.20;;;;;;5023646;28;19925;-76
2023/09/11 22:31:20;;;;;;;;;;;20.30;82.20;;;;;;5019533;28;19925;-75
2023/09/11 22:33:54;;;;;;;;;;;20.30;82.20;;;;;;5010643;28;20332;-74
2023/09/11 22:36:27;;;;;;;;;;;20.30;82.30;;;;;;5018210;28;19933;-75
2023/09/11 22:39:00;;;;;;;;;;;20.20;82.40;;;;;;5022736;28;19980;-74
2023/09/11 22:41:33;;;;;;;;;;;20.20;82.50;;;;;;5021944;28;19925;-76
2023/09/11 22:44:06;;;;;;;;;;;20.20;82.50;;;;;;5021829;28;19932;-76
2023/09/11 22:46:39;;;;;;;;;;;20.10;82.40;;;;;;5022030;28;19944;-76
2023/09/11 22:49:13;;;;;;;;;;;20.10;82.50;;;;;;5022455;28;20277;-75
2023/09/11 22:51:47;;;;;;;;;;;20.20;82.40;;;;;;5021613;28;20016;-76
2023/09/11 22:54:20;;;;;;;;;;;20.10;82.20;;;;;;5019459;28;19926;-74
2023/09/11 22:56:53;;;;;;;;;;;20.10;82.20;;;;;;5020627;28;19925;-75
2023/09/11 22:59:26;;;;;;;;;;;20.20;82.20;;;;;;5021538;28;19929;-76
2023/09/11 23:01:59;;;;;;;;;;;20.10;82.40;;;;;;5023795;28;19925;-77
2023/09/11 23:04:33;;;;;;;;;;;20.10;82.50;;;;;;5021359;28;19933;-76
2023/09/11 23:07:08;;;;;;;;;;;20.00;82.60;;;;;;5023139;28;19961;-77
2023/09/11 23:09:41;;;;;;;;;;;20.00;82.50;;;;;;5020358;28;20011;-76
2023/09/11 23:12:14;;;;;;;;;;;20.00;82.50;;;;;;5019096;28;19933;-68
2023/09/11 23:14:47;;;;;;;;;;;20.00;82.50;;;;;;5018847;28;19925;-69
2023/09/11 23:17:20;;;;;;;;;;;20.00;82.50;;;;;;5020605;28;19925;-70
2023/09/11 23:19:54;;;;;;;;;;;20.00;82.60;;;;;;5023414;28;19926;-68
2023/09/11 23:22:27;;;;;;;;;;;19.90;82.60;;;;;;5021091;28;19948;-69
2023/09/11 23:25:00;;;;;;;;;;;19.80;82.60;;;;;;5019825;28;19929;-68
2023/09/11 23:27:33;;;;;;;;;;;19.80;82.60;;;;;;5018798;28;20020;-69
2023/09/11 23:44:20;;;;;;;;;;;19.70;82.50;;;;;;5009388;28;19963;-68
2023/09/11 23:46:54;;;;;;;;;;;19.70;82.60;;;;;;5019664;28;19933;-68
2023/09/11 23:49:27;;;;;;;;;;;19.60;82.60;;;;;;5020726;28;19925;-68
2023/09/11 23:52:00;;;;;;;;;;;19.60;82.60;;;;;;5021956;28;19930;-68
2023/09/11 23:54:33;;;;;;;;;;;19.60;82.60;;;;;;5020306;28;19929;-68
2023/09/11 23:57:06;;;;;;;;;;;19.60;82.60;;;;;;5022929;28;19929;-69
2023/09/11 23:59:41;;;;;;;;;;;19.60;82.70;;;;;;5023390;28;19987;-68
